sensor_id;sensor_type;location;lat;lon;timestamp;P1;durP1;ratioP1;P2;durP2;ratioP2
38117;SDS011;23928;47.562;7.508;2024-01-10T00:01:17;38.17;;;19.93;;
38117;SDS011;23928;47.562;7.508;2024-01-10T00:03:43;38.83;;;18.77;;
38117;SDS011;23928;47.562;7.508;2024-01-10T00:06:10;36.83;;;18.57;;
38117;SDS011;23928;47.562;7.508;2024-01-10T00:08:36;38.40;;;18.83;;
38117;SDS011;23928;47.562;7.508;2024-01-10T00:11:02;35.63;;;18.10;;
38117;SDS011;23928;47.562;7.508;2024-01-10T00:13:28;37.50;;;19.40;;
38117;SDS011;23928;47.562;7.508;2024-01-10T00:15:54;38.30;;;19.73;;
38117;SDS011;23928;47.562;7.508;2024-01-10T00:18:20;40.57;;;18.93;;
38117;SDS011;23928;47.562;7.508;2024-01-10T00:20:46;38.00;;;19.03;;
38117;SDS011;23928;47.562;7.508;2024-01-10T00:23:12;41.03;;;19.20;;
38117;SDS011;23928;47.562;7.508;2024-01-10T00:25:38;39.37;;;19.17;;
38117;SDS011;23928;47.562;7.508;2024-01-10T00:28:04;38.93;;;17.97;;
38117;SDS011;23928;47.562;7.508;2024-01-10T00:30:30;40.20;;;19.47;;
38117;SDS011;23928;47.562;7.508;2024-01-10T00:32:56;37.50;;;19.53;;
38117;SDS011;23928;47.562;7.508;2024-01-10T00:35:21;35.23;;;18.57;;
38117;SDS011;23928;47.562;7.508;2024-01-10T00:37:47;42.53;;;19.50;;
38117;SDS011;23928;47.562;7.508;2024-01-10T00:40:13;39.37;;;19.60;;
38117;SDS011;23928;47.562;7.508;2024-01-10T00:42:38;37.70;;;18.83;;
38117;SDS011;23928;47.562;7.508;2024-01-10T00:45:04;37.07;;;19.17;;
38117;SDS011;23928;47.562;7.508;2024-01-10T00:47:30;40.63;;;18.93;;
38117;SDS011;23928;47.562;7.508;2024-01-10T00:49:56;37.40;;;18.30;;
38117;SDS011;23928;47.562;7.508;2024-01-10T00:52:21;32.40;;;17.90;;
38117;SDS011;23928;47.562;7.508;2024-01-10T00:54:47;37.80;;;18.30;;
38117;SDS011;23928;47.562;7.508;2024-01-10T00:57:12;38.10;;;18.97;;
38117;SDS011;23928;47.562;7.508;2024-01-10T00:59:39;39.30;;;19.43;;
38117;SDS011;23928;47.562;7.508;2024-01-10T01:02:05;42.53;;;19.10;;
38117;SDS011;23928;47.562;7.508;2024-01-10T01:04:31;34.97;;;18.40;;
38117;SDS011;23928;47.562;7.508;2024-01-10T01:06:56;42.97;;;19.10;;
38117;SDS011;23928;47.562;7.508;2024-01-10T01:09:22;42.83;;;19.73;;
38117;SDS011;23928;47.562;7.508;2024-01-10T01:11:47;38.27;;;19.20;;
38117;SDS011;23928;47.562;7.508;2024-01-10T01:14:13;39.23;;;19.60;;
38117;SDS011;23928;47.562;7.508;2024-01-10T01:16:39;37.47;;;18.70;;
38117;SDS011;23928;47.562;7.508;2024-01-10T01:19:04;39.20;;;19.37;;
38117;SDS011;23928;47.562;7.508;2024-01-10T01:21:30;43.73;;;19.83;;
38117;SDS011;23928;47.562;7.508;2024-01-10T01:23:55;38.33;;;18.87;;
38117;SDS011;23928;47.562;7.508;2024-01-10T01:26:21;36.77;;;19.10;;
38117;SDS011;23928;47.562;7.508;2024-01-10T01:28:46;39.90;;;19.47;;
38117;SDS011;23928;47.562;7.508;2024-01-10T01:31:12;40.17;;;20.23;;
38117;SDS011;23928;47.562;7.508;2024-01-10T01:33:38;42.33;;;20.13;;
38117;SDS011;23928;47.562;7.508;2024-01-10T01:36:04;41.97;;;19.33;;
38117;SDS011;23928;47.562;7.508;2024-01-10T01:38:31;38.27;;;18.63;;
38117;SDS011;23928;47.562;7.508;2024-01-10T01:40:56;36.30;;;18.40;;
38117;SDS011;23928;47.562;7.508;2024-01-10T01:43:23;34.10;;;17.70;;
38117;SDS011;23928;47.562;7.508;2024-01-10T01:45:53;38.90;;;20.30;;
38117;SDS011;23928;47.562;7.508;2024-01-10T01:48:20;40.17;;;18.63;;
38117;SDS011;23928;47.562;7.508;2024-01-10T01:50:47;39.60;;;18.83;;
38117;SDS011;23928;47.562;7.508;2024-01-10T01:53:15;41.80;;;20.20;;
38117;SDS011;23928;47.562;7.508;2024-01-10T01:55:43;41.43;;;19.93;;
38117;SDS011;23928;47.562;7.508;2024-01-10T01:58:09;38.80;;;18.93;;
38117;SDS011;23928;47.562;7.508;2024-01-10T02:00:35;41.93;;;20.37;;
38117;SDS011;23928;47.562;7.508;2024-01-10T02:03:02;41.77;;;19.03;;
38117;SDS011;23928;47.562;7.508;2024-01-10T02:05:29;43.10;;;20.23;;
38117;SDS011;23928;47.562;7.508;2024-01-10T02:07:55;42.90;;;20.27;;
38117;SDS011;23928;47.562;7.508;2024-01-10T02:10:21;44.03;;;19.90;;
38117;SDS011;23928;47.562;7.508;2024-01-10T02:12:46;48.60;;;20.87;;
38117;SDS011;23928;47.562;7.508;2024-01-10T02:15:12;40.87;;;19.47;;
38117;SDS011;23928;47.562;7.508;2024-01-10T02:17:39;40.73;;;19.17;;
38117;SDS011;23928;47.562;7.508;2024-01-10T02:20:11;47.17;;;21.87;;
38117;SDS011;23928;47.562;7.508;2024-01-10T02:22:38;44.50;;;20.40;;
38117;SDS011;23928;47.562;7.508;2024-01-10T02:25:07;46.87;;;21.27;;
38117;SDS011;23928;47.562;7.508;2024-01-10T02:27:36;49.03;;;22.07;;
38117;SDS011;23928;47.562;7.508;2024-01-10T02:30:03;44.67;;;21.37;;
38117;SDS011;23928;47.562;7.508;2024-01-10T02:32:30;48.93;;;21.73;;
38117;SDS011;23928;47.562;7.508;2024-01-10T02:34:56;51.87;;;22.43;;
38117;SDS011;23928;47.562;7.508;2024-01-10T02:37:22;47.10;;;22.30;;
38117;SDS011;23928;47.562;7.508;2024-01-10T02:39:48;45.37;;;21.27;;
38117;SDS011;23928;47.562;7.508;2024-01-10T02:42:13;49.97;;;22.77;;
38117;SDS011;23928;47.562;7.508;2024-01-10T02:44:39;57.47;;;23.50;;
38117;SDS011;23928;47.562;7.508;2024-01-10T02:47:05;49.07;;;22.60;;
38117;SDS011;23928;47.562;7.508;2024-01-10T02:49:33;47.27;;;21.70;;
38117;SDS011;23928;47.562;7.508;2024-01-10T02:51:59;44.63;;;21.37;;
38117;SDS011;23928;47.562;7.508;2024-01-10T02:54:25;50.03;;;23.10;;
38117;SDS011;23928;47.562;7.508;2024-01-10T02:56:50;56.53;;;22.23;;
38117;SDS011;23928;47.562;7.508;2024-01-10T02:59:16;53.13;;;23.67;;
38117;SDS011;23928;47.562;7.508;2024-01-10T03:01:42;50.47;;;22.43;;
38117;SDS011;23928;47.562;7.508;2024-01-10T03:04:08;52.00;;;22.13;;
38117;SDS011;23928;47.562;7.508;2024-01-10T03:06:34;53.07;;;22.60;;
38117;SDS011;23928;47.562;7.508;2024-01-10T03:08:59;49.27;;;23.33;;
38117;SDS011;23928;47.562;7.508;2024-01-10T03:11:25;57.47;;;23.10;;
38117;SDS011;23928;47.562;7.508;2024-01-10T03:13:51;52.53;;;22.60;;
38117;SDS011;23928;47.562;7.508;2024-01-10T03:16:25;52.53;;;23.17;;
38117;SDS011;23928;47.562;7.508;2024-01-10T03:18:51;52.20;;;22.73;;
38117;SDS011;23928;47.562;7.508;2024-01-10T03:21:17;54.90;;;24.37;;
38117;SDS011;23928;47.562;7.508;2024-01-10T03:23:49;50.87;;;22.80;;
38117;SDS011;23928;47.562;7.508;2024-01-10T03:26:21;49.40;;;22.63;;
38117;SDS011;23928;47.562;7.508;2024-01-10T03:28:47;54.23;;;24.93;;
38117;SDS011;23928;47.562;7.508;2024-01-10T03:31:13;51.27;;;22.13;;
38117;SDS011;23928;47.562;7.508;2024-01-10T03:33:39;49.63;;;23.17;;
38117;SDS011;23928;47.562;7.508;2024-01-10T03:36:05;54.80;;;22.83;;
38117;SDS011;23928;47.562;7.508;2024-01-10T03:38:32;54.03;;;21.90;;
38117;SDS011;23928;47.562;7.508;2024-01-10T03:40:57;54.90;;;24.90;;
38117;SDS011;23928;47.562;7.508;2024-01-10T03:43:23;50.87;;;23.43;;
38117;SDS011;23928;47.562;7.508;2024-01-10T03:45:48;53.70;;;23.43;;
38117;SDS011;23928;47.562;7.508;2024-01-10T03:48:14;49.97;;;23.53;;
38117;SDS011;23928;47.562;7.508;2024-01-10T03:50:40;52.37;;;23.33;;
38117;SDS011;23928;47.562;7.508;2024-01-10T03:53:05;58.90;;;24.43;;
38117;SDS011;23928;47.562;7.508;2024-01-10T03:55:31;52.47;;;23.67;;
38117;SDS011;23928;47.562;7.508;2024-01-10T03:57:57;57.53;;;25.97;;
38117;SDS011;23928;47.562;7.508;2024-01-10T04:00:22;54.43;;;23.47;;
38117;SDS011;23928;47.562;7.508;2024-01-10T04:02:48;57.77;;;24.90;;
38117;SDS011;23928;47.562;7.508;2024-01-10T04:05:13;56.47;;;23.03;;
38117;SDS011;23928;47.562;7.508;2024-01-10T04:07:40;58.13;;;24.07;;
38117;SDS011;23928;47.562;7.508;2024-01-10T04:10:09;55.23;;;23.37;;
38117;SDS011;23928;47.562;7.508;2024-01-10T04:12:36;62.03;;;24.47;;
38117;SDS011;23928;47.562;7.508;2024-01-10T04:15:03;51.47;;;23.27;;
38117;SDS011;23928;47.562;7.508;2024-01-10T04:17:29;52.80;;;23.37;;
38117;SDS011;23928;47.562;7.508;2024-01-10T04:19:55;48.90;;;22.60;;
38117;SDS011;23928;47.562;7.508;2024-01-10T04:22:21;59.07;;;24.10;;
38117;SDS011;23928;47.562;7.508;2024-01-10T04:24:48;54.97;;;23.70;;
38117;SDS011;23928;47.562;7.508;2024-01-10T04:27:14;57.73;;;24.47;;
38117;SDS011;23928;47.562;7.508;2024-01-10T04:29:40;53.93;;;23.23;;
38117;SDS011;23928;47.562;7.508;2024-01-10T04:32:06;57.77;;;24.57;;
38117;SDS011;23928;47.562;7.508;2024-01-10T04:34:31;57.90;;;24.10;;
38117;SDS011;23928;47.562;7.508;2024-01-10T04:36:57;52.70;;;24.77;;
38117;SDS011;23928;47.562;7.508;2024-01-10T04:39:22;58.30;;;25.50;;
38117;SDS011;23928;47.562;7.508;2024-01-10T04:41:48;56.83;;;25.73;;
38117;SDS011;23928;47.562;7.508;2024-01-10T04:44:14;53.90;;;23.53;;
38117;SDS011;23928;47.562;7.508;2024-01-10T04:46:39;53.60;;;23.70;;
38117;SDS011;23928;47.562;7.508;2024-01-10T04:49:06;65.47;;;27.07;;
38117;SDS011;23928;47.562;7.508;2024-01-10T04:51:31;55.53;;;23.43;;
38117;SDS011;23928;47.562;7.508;2024-01-10T04:53:57;54.50;;;25.37;;
38117;SDS011;23928;47.562;7.508;2024-01-10T04:56:23;54.47;;;25.13;;
38117;SDS011;23928;47.562;7.508;2024-01-10T04:58:48;56.90;;;24.00;;
38117;SDS011;23928;47.562;7.508;2024-01-10T05:01:14;64.40;;;25.17;;
38117;SDS011;23928;47.562;7.508;2024-01-10T05:03:40;57.30;;;24.87;;
38117;SDS011;23928;47.562;7.508;2024-01-10T05:06:05;56.40;;;24.57;;
38117;SDS011;23928;47.562;7.508;2024-01-10T05:08:32;58.17;;;25.30;;
38117;SDS011;23928;47.562;7.508;2024-01-10T05:10:57;68.30;;;24.93;;
38117;SDS011;23928;47.562;7.508;2024-01-10T05:13:23;62.23;;;25.20;;
38117;SDS011;23928;47.562;7.508;2024-01-10T05:15:49;58.27;;;24.90;;
38117;SDS011;23928;47.562;7.508;2024-01-10T05:18:15;63.50;;;24.43;;
38117;SDS011;23928;47.562;7.508;2024-01-10T05:20:41;53.20;;;24.07;;
38117;SDS011;23928;47.562;7.508;2024-01-10T05:23:07;58.40;;;24.17;;
38117;SDS011;23928;47.562;7.508;2024-01-10T05:25:32;57.50;;;23.67;;
38117;SDS011;23928;47.562;7.508;2024-01-10T05:27:58;55.50;;;24.77;;
38117;SDS011;23928;47.562;7.508;2024-01-10T05:30:24;60.63;;;25.63;;
38117;SDS011;23928;47.562;7.508;2024-01-10T05:32:50;60.17;;;26.73;;
38117;SDS011;23928;47.562;7.508;2024-01-10T05:35:16;65.80;;;25.53;;
38117;SDS011;23928;47.562;7.508;2024-01-10T05:37:41;57.93;;;25.03;;
38117;SDS011;23928;47.562;7.508;2024-01-10T05:40:07;56.70;;;24.60;;
38117;SDS011;23928;47.562;7.508;2024-01-10T05:42:33;62.37;;;26.50;;
38117;SDS011;23928;47.562;7.508;2024-01-10T05:44:59;63.17;;;24.90;;
38117;SDS011;23928;47.562;7.508;2024-01-10T05:47:25;65.73;;;24.80;;
38117;SDS011;23928;47.562;7.508;2024-01-10T05:49:51;63.70;;;26.13;;
38117;SDS011;23928;47.562;7.508;2024-01-10T05:52:18;61.70;;;24.53;;
38117;SDS011;23928;47.562;7.508;2024-01-10T05:54:44;55.57;;;25.30;;
38117;SDS011;23928;47.562;7.508;2024-01-10T05:57:10;60.03;;;24.43;;
38117;SDS011;23928;47.562;7.508;2024-01-10T05:59:35;62.40;;;25.33;;
38117;SDS011;23928;47.562;7.508;2024-01-10T06:02:02;59.77;;;26.23;;
38117;SDS011;23928;47.562;7.508;2024-01-10T06:04:28;65.17;;;25.87;;
38117;SDS011;23928;47.562;7.508;2024-01-10T06:06:56;68.07;;;25.17;;
38117;SDS011;23928;47.562;7.508;2024-01-10T06:09:23;61.30;;;24.03;;
38117;SDS011;23928;47.562;7.508;2024-01-10T06:11:48;61.77;;;24.10;;
38117;SDS011;23928;47.562;7.508;2024-01-10T06:14:14;66.00;;;25.73;;
38117;SDS011;23928;47.562;7.508;2024-01-10T06:16:41;63.10;;;26.70;;
38117;SDS011;23928;47.562;7.508;2024-01-10T06:19:06;62.70;;;26.27;;
38117;SDS011;23928;47.562;7.508;2024-01-10T06:21:32;71.27;;;27.07;;
38117;SDS011;23928;47.562;7.508;2024-01-10T06:23:57;70.50;;;27.43;;
38117;SDS011;23928;47.562;7.508;2024-01-10T06:26:23;63.07;;;27.07;;
38117;SDS011;23928;47.562;7.508;2024-01-10T06:28:49;69.23;;;26.10;;
38117;SDS011;23928;47.562;7.508;2024-01-10T06:31:14;57.33;;;26.13;;
38117;SDS011;23928;47.562;7.508;2024-01-10T06:33:40;65.73;;;25.33;;
38117;SDS011;23928;47.562;7.508;2024-01-10T06:36:06;74.73;;;26.90;;
38117;SDS011;23928;47.562;7.508;2024-01-10T06:38:32;60.70;;;25.80;;
38117;SDS011;23928;47.562;7.508;2024-01-10T06:40:58;66.07;;;25.67;;
38117;SDS011;23928;47.562;7.508;2024-01-10T06:43:23;63.23;;;24.37;;
38117;SDS011;23928;47.562;7.508;2024-01-10T06:45:49;62.10;;;25.00;;
38117;SDS011;23928;47.562;7.508;2024-01-10T06:48:14;64.83;;;24.70;;
38117;SDS011;23928;47.562;7.508;2024-01-10T06:50:40;59.17;;;23.20;;
38117;SDS011;23928;47.562;7.508;2024-01-10T06:53:06;68.60;;;25.13;;
38117;SDS011;23928;47.562;7.508;2024-01-10T06:55:32;65.27;;;25.20;;
38117;SDS011;23928;47.562;7.508;2024-01-10T06:57:58;61.90;;;24.87;;
38117;SDS011;23928;47.562;7.508;2024-01-10T07:00:24;59.97;;;24.07;;
38117;SDS011;23928;47.562;7.508;2024-01-10T07:02:51;56.17;;;22.47;;
38117;SDS011;23928;47.562;7.508;2024-01-10T07:05:16;62.87;;;23.57;;
38117;SDS011;23928;47.562;7.508;2024-01-10T07:07:42;58.23;;;22.80;;
38117;SDS011;23928;47.562;7.508;2024-01-10T07:10:08;52.00;;;22.40;;
38117;SDS011;23928;47.562;7.508;2024-01-10T07:12:35;60.00;;;23.77;;
38117;SDS011;23928;47.562;7.508;2024-01-10T07:15:01;59.00;;;23.43;;
38117;SDS011;23928;47.562;7.508;2024-01-10T07:17:28;58.53;;;22.10;;
38117;SDS011;23928;47.562;7.508;2024-01-10T07:19:53;54.37;;;22.03;;
38117;SDS011;23928;47.562;7.508;2024-01-10T07:22:21;55.23;;;23.27;;
38117;SDS011;23928;47.562;7.508;2024-01-10T07:24:47;54.80;;;23.00;;
38117;SDS011;23928;47.562;7.508;2024-01-10T07:27:13;58.20;;;21.43;;
38117;SDS011;23928;47.562;7.508;2024-01-10T07:29:39;47.47;;;21.57;;
38117;SDS011;23928;47.562;7.508;2024-01-10T07:32:05;55.20;;;22.03;;
38117;SDS011;23928;47.562;7.508;2024-01-10T07:34:36;57.43;;;21.70;;
38117;SDS011;23928;47.562;7.508;2024-01-10T07:37:02;57.17;;;22.97;;
38117;SDS011;23928;47.562;7.508;2024-01-10T07:39:28;53.77;;;22.67;;
38117;SDS011;23928;47.562;7.508;2024-01-10T07:41:54;52.57;;;22.93;;
38117;SDS011;23928;47.562;7.508;2024-01-10T07:44:20;55.73;;;24.13;;
38117;SDS011;23928;47.562;7.508;2024-01-10T07:46:45;49.93;;;21.03;;
38117;SDS011;23928;47.562;7.508;2024-01-10T07:49:11;54.10;;;21.60;;
38117;SDS011;23928;47.562;7.508;2024-01-10T07:51:36;53.30;;;21.40;;
38117;SDS011;23928;47.562;7.508;2024-01-10T07:54:02;57.77;;;22.57;;
38117;SDS011;23928;47.562;7.508;2024-01-10T07:56:27;61.97;;;24.37;;
38117;SDS011;23928;47.562;7.508;2024-01-10T07:58:55;51.40;;;22.27;;
38117;SDS011;23928;47.562;7.508;2024-01-10T08:01:20;50.57;;;22.90;;
38117;SDS011;23928;47.562;7.508;2024-01-10T08:03:46;56.90;;;22.50;;
38117;SDS011;23928;47.562;7.508;2024-01-10T08:06:12;58.93;;;23.37;;
38117;SDS011;23928;47.562;7.508;2024-01-10T08:08:38;61.30;;;24.97;;
38117;SDS011;23928;47.562;7.508;2024-01-10T08:11:04;59.57;;;25.13;;
38117;SDS011;23928;47.562;7.508;2024-01-10T08:13:30;53.20;;;21.50;;
38117;SDS011;23928;47.562;7.508;2024-01-10T08:15:56;54.57;;;22.20;;
38117;SDS011;23928;47.562;7.508;2024-01-10T08:18:22;57.20;;;24.13;;
38117;SDS011;23928;47.562;7.508;2024-01-10T08:20:48;57.67;;;23.87;;
38117;SDS011;23928;47.562;7.508;2024-01-10T08:23:14;54.40;;;22.97;;
38117;SDS011;23928;47.562;7.508;2024-01-10T08:25:39;61.10;;;24.03;;
38117;SDS011;23928;47.562;7.508;2024-01-10T08:28:05;59.90;;;25.20;;
38117;SDS011;23928;47.562;7.508;2024-01-10T08:30:31;52.13;;;23.03;;
38117;SDS011;23928;47.562;7.508;2024-01-10T08:32:57;58.00;;;23.77;;
38117;SDS011;23928;47.562;7.508;2024-01-10T08:35:24;58.33;;;23.50;;
38117;SDS011;23928;47.562;7.508;2024-01-10T08:37:50;53.10;;;21.17;;
38117;SDS011;23928;47.562;7.508;2024-01-10T08:40:15;61.23;;;24.97;;
38117;SDS011;23928;47.562;7.508;2024-01-10T08:42:42;58.37;;;24.43;;
38117;SDS011;23928;47.562;7.508;2024-01-10T08:45:08;50.73;;;21.37;;
38117;SDS011;23928;47.562;7.508;2024-01-10T08:47:36;59.00;;;24.37;;
38117;SDS011;23928;47.562;7.508;2024-01-10T08:50:02;63.47;;;23.40;;
38117;SDS011;23928;47.562;7.508;2024-01-10T08:52:30;58.33;;;23.13;;
38117;SDS011;23928;47.562;7.508;2024-01-10T08:54:56;66.03;;;24.13;;
38117;SDS011;23928;47.562;7.508;2024-01-10T08:57:21;57.50;;;23.77;;
38117;SDS011;23928;47.562;7.508;2024-01-10T08:59:47;59.37;;;25.23;;
38117;SDS011;23928;47.562;7.508;2024-01-10T09:02:13;60.63;;;24.77;;
38117;SDS011;23928;47.562;7.508;2024-01-10T09:04:39;57.43;;;25.53;;
38117;SDS011;23928;47.562;7.508;2024-01-10T09:07:05;65.87;;;27.03;;
38117;SDS011;23928;47.562;7.508;2024-01-10T09:09:31;62.87;;;25.27;;
38117;SDS011;23928;47.562;7.508;2024-01-10T09:11:57;70.20;;;25.77;;
38117;SDS011;23928;47.562;7.508;2024-01-10T09:14:22;61.17;;;24.57;;
38117;SDS011;23928;47.562;7.508;2024-01-10T09:16:48;58.73;;;25.03;;
38117;SDS011;23928;47.562;7.508;2024-01-10T09:19:14;64.97;;;25.43;;
38117;SDS011;23928;47.562;7.508;2024-01-10T09:21:39;65.47;;;23.97;;
38117;SDS011;23928;47.562;7.508;2024-01-10T09:24:05;60.27;;;26.27;;
38117;SDS011;23928;47.562;7.508;2024-01-10T09:26:33;60.23;;;25.07;;
38117;SDS011;23928;47.562;7.508;2024-01-10T09:28:59;61.80;;;24.87;;
38117;SDS011;23928;47.562;7.508;2024-01-10T09:31:25;55.17;;;24.47;;
38117;SDS011;23928;47.562;7.508;2024-01-10T09:33:50;54.07;;;25.43;;
38117;SDS011;23928;47.562;7.508;2024-01-10T09:36:16;60.17;;;25.37;;
38117;SDS011;23928;47.562;7.508;2024-01-10T09:38:42;63.60;;;25.17;;
38117;SDS011;23928;47.562;7.508;2024-01-10T09:41:07;56.90;;;25.60;;
38117;SDS011;23928;47.562;7.508;2024-01-10T09:43:36;58.17;;;24.03;;
38117;SDS011;23928;47.562;7.508;2024-01-10T09:46:01;55.13;;;24.67;;
38117;SDS011;23928;47.562;7.508;2024-01-10T09:48:27;60.30;;;25.60;;
38117;SDS011;23928;47.562;7.508;2024-01-10T09:50:54;57.20;;;24.87;;
38117;SDS011;23928;47.562;7.508;2024-01-10T09:53:24;53.87;;;24.83;;
38117;SDS011;23928;47.562;7.508;2024-01-10T09:55:55;56.60;;;24.60;;
38117;SDS011;23928;47.562;7.508;2024-01-10T09:58:26;55.13;;;24.03;;
38117;SDS011;23928;47.562;7.508;2024-01-10T10:00:52;50.73;;;23.83;;
38117;SDS011;23928;47.562;7.508;2024-01-10T10:03:18;52.80;;;23.53;;
38117;SDS011;23928;47.562;7.508;2024-01-10T10:05:44;50.70;;;23.70;;
38117;SDS011;23928;47.562;7.508;2024-01-10T10:08:10;52.47;;;25.10;;
38117;SDS011;23928;47.562;7.508;2024-01-10T10:10:38;53.40;;;23.87;;
38117;SDS011;23928;47.562;7.508;2024-01-10T10:13:09;54.10;;;24.00;;
38117;SDS011;23928;47.562;7.508;2024-01-10T10:15:36;49.53;;;24.63;;
38117;SDS011;23928;47.562;7.508;2024-01-10T10:18:02;49.87;;;23.83;;
38117;SDS011;23928;47.562;7.508;2024-01-10T10:20:28;54.90;;;24.67;;
38117;SDS011;23928;47.562;7.508;2024-01-10T10:23:01;60.90;;;24.63;;
38117;SDS011;23928;47.562;7.508;2024-01-10T10:25:29;53.70;;;23.53;;
38117;SDS011;23928;47.562;7.508;2024-01-10T10:27:59;55.00;;;26.03;;
38117;SDS011;23928;47.562;7.508;2024-01-10T10:30:26;62.33;;;25.43;;
38117;SDS011;23928;47.562;7.508;2024-01-10T10:32:52;60.37;;;26.57;;
38117;SDS011;23928;47.562;7.508;2024-01-10T10:35:21;65.67;;;26.23;;
38117;SDS011;23928;47.562;7.508;2024-01-10T10:37:50;62.70;;;25.83;;
38117;SDS011;23928;47.562;7.508;2024-01-10T10:40:17;56.53;;;26.97;;
38117;SDS011;23928;47.562;7.508;2024-01-10T10:42:49;63.67;;;25.47;;
38117;SDS011;23928;47.562;7.508;2024-01-10T10:45:20;63.77;;;27.60;;
38117;SDS011;23928;47.562;7.508;2024-01-10T10:47:50;64.40;;;26.57;;
38117;SDS011;23928;47.562;7.508;2024-01-10T10:50:23;66.70;;;27.17;;
38117;SDS011;23928;47.562;7.508;2024-01-10T10:52:50;62.33;;;27.53;;
38117;SDS011;23928;47.562;7.508;2024-01-10T10:55:18;62.20;;;27.30;;
38117;SDS011;23928;47.562;7.508;2024-01-10T10:57:48;62.70;;;26.90;;
38117;SDS011;23928;47.562;7.508;2024-01-10T11:00:18;48.07;;;23.33;;
38117;SDS011;23928;47.562;7.508;2024-01-10T11:02:45;51.00;;;22.40;;
38117;SDS011;23928;47.562;7.508;2024-01-10T11:05:11;50.57;;;23.23;;
38117;SDS011;23928;47.562;7.508;2024-01-10T11:07:38;49.33;;;23.00;;
38117;SDS011;23928;47.562;7.508;2024-01-10T11:10:06;48.40;;;22.87;;
38117;SDS011;23928;47.562;7.508;2024-01-10T11:15:38;47.33;;;23.60;;
38117;SDS011;23928;47.562;7.508;2024-01-10T11:23:49;46.17;;;23.27;;
38117;SDS011;23928;47.562;7.508;2024-01-10T11:26:20;50.47;;;23.63;;
38117;SDS011;23928;47.562;7.508;2024-01-10T11:28:45;47.40;;;22.37;;
38117;SDS011;23928;47.562;7.508;2024-01-10T11:31:12;51.80;;;23.87;;
38117;SDS011;23928;47.562;7.508;2024-01-10T11:33:41;47.93;;;23.67;;
38117;SDS011;23928;47.562;7.508;2024-01-10T11:38:40;52.80;;;24.03;;
38117;SDS011;23928;47.562;7.508;2024-01-10T11:41:09;51.17;;;24.00;;
38117;SDS011;23928;47.562;7.508;2024-01-10T11:43:36;49.30;;;22.87;;
38117;SDS011;23928;47.562;7.508;2024-01-10T11:46:03;48.70;;;24.27;;
38117;SDS011;23928;47.562;7.508;2024-01-10T11:48:30;49.50;;;23.50;;
38117;SDS011;23928;47.562;7.508;2024-01-10T11:50:57;54.60;;;25.50;;
38117;SDS011;23928;47.562;7.508;2024-01-10T11:56:14;49.97;;;24.23;;
38117;SDS011;23928;47.562;7.508;2024-01-10T11:58:54;52.37;;;25.63;;
38117;SDS011;23928;47.562;7.508;2024-01-10T12:01:25;45.30;;;23.13;;
38117;SDS011;23928;47.562;7.508;2024-01-10T12:03:52;56.33;;;25.07;;
38117;SDS011;23928;47.562;7.508;2024-01-10T12:06:19;47.87;;;24.87;;
38117;SDS011;23928;47.562;7.508;2024-01-10T12:08:46;46.53;;;24.33;;
38117;SDS011;23928;47.562;7.508;2024-01-10T12:11:11;56.73;;;24.90;;
38117;SDS011;23928;47.562;7.508;2024-01-10T12:13:37;58.33;;;25.83;;
38117;SDS011;23928;47.562;7.508;2024-01-10T12:16:03;52.37;;;24.83;;
38117;SDS011;23928;47.562;7.508;2024-01-10T12:18:29;55.53;;;26.43;;
38117;SDS011;23928;47.562;7.508;2024-01-10T12:20:55;54.33;;;25.40;;
38117;SDS011;23928;47.562;7.508;2024-01-10T12:23:20;58.30;;;27.17;;
38117;SDS011;23928;47.562;7.508;2024-01-10T12:25:48;52.47;;;24.87;;
38117;SDS011;23928;47.562;7.508;2024-01-10T12:28:17;57.50;;;25.53;;
38117;SDS011;23928;47.562;7.508;2024-01-10T12:30:42;57.40;;;26.07;;
38117;SDS011;23928;47.562;7.508;2024-01-10T12:33:09;55.23;;;25.43;;
38117;SDS011;23928;47.562;7.508;2024-01-10T12:35:35;53.63;;;25.37;;
38117;SDS011;23928;47.562;7.508;2024-01-10T12:38:00;55.43;;;25.97;;
38117;SDS011;23928;47.562;7.508;2024-01-10T12:40:26;54.33;;;26.27;;
38117;SDS011;23928;47.562;7.508;2024-01-10T12:43:02;55.30;;;25.47;;
38117;SDS011;23928;47.562;7.508;2024-01-10T12:45:29;52.13;;;23.77;;
38117;SDS011;23928;47.562;7.508;2024-01-10T12:47:54;52.03;;;24.40;;
38117;SDS011;23928;47.562;7.508;2024-01-10T12:50:20;51.83;;;24.43;;
38117;SDS011;23928;47.562;7.508;2024-01-10T12:52:46;47.83;;;23.60;;
38117;SDS011;23928;47.562;7.508;2024-01-10T12:55:13;48.10;;;24.23;;
38117;SDS011;23928;47.562;7.508;2024-01-10T12:57:39;48.80;;;23.67;;
38117;SDS011;23928;47.562;7.508;2024-01-10T13:00:05;50.60;;;23.30;;
38117;SDS011;23928;47.562;7.508;2024-01-10T13:02:31;41.97;;;22.83;;
38117;SDS011;23928;47.562;7.508;2024-01-10T13:05:02;52.73;;;24.87;;
38117;SDS011;23928;47.562;7.508;2024-01-10T13:07:34;52.90;;;23.80;;
38117;SDS011;23928;47.562;7.508;2024-01-10T13:10:03;51.97;;;25.17;;
38117;SDS011;23928;47.562;7.508;2024-01-10T13:12:28;50.27;;;23.90;;
38117;SDS011;23928;47.562;7.508;2024-01-10T13:14:55;51.20;;;24.03;;
38117;SDS011;23928;47.562;7.508;2024-01-10T13:17:21;50.33;;;24.73;;
38117;SDS011;23928;47.562;7.508;2024-01-10T13:19:47;49.57;;;25.43;;
38117;SDS011;23928;47.562;7.508;2024-01-10T13:22:16;48.10;;;24.47;;
38117;SDS011;23928;47.562;7.508;2024-01-10T13:24:44;48.70;;;23.33;;
38117;SDS011;23928;47.562;7.508;2024-01-10T13:27:10;50.13;;;23.10;;
38117;SDS011;23928;47.562;7.508;2024-01-10T13:29:36;41.20;;;22.40;;
38117;SDS011;23928;47.562;7.508;2024-01-10T13:32:03;53.43;;;25.00;;
38117;SDS011;23928;47.562;7.508;2024-01-10T13:34:30;42.80;;;22.47;;
38117;SDS011;23928;47.562;7.508;2024-01-10T13:36:55;46.27;;;23.23;;
38117;SDS011;23928;47.562;7.508;2024-01-10T13:39:21;44.43;;;22.70;;
38117;SDS011;23928;47.562;7.508;2024-01-10T13:41:46;44.13;;;22.37;;
38117;SDS011;23928;47.562;7.508;2024-01-10T13:44:12;45.03;;;23.03;;
38117;SDS011;23928;47.562;7.508;2024-01-10T13:46:38;44.70;;;23.27;;
38117;SDS011;23928;47.562;7.508;2024-01-10T13:49:03;43.93;;;22.80;;
38117;SDS011;23928;47.562;7.508;2024-01-10T13:51:30;52.00;;;24.97;;
38117;SDS011;23928;47.562;7.508;2024-01-10T13:53:57;44.43;;;22.87;;
38117;SDS011;23928;47.562;7.508;2024-01-10T13:56:22;50.80;;;24.90;;
38117;SDS011;23928;47.562;7.508;2024-01-10T13:58:48;50.30;;;24.37;;
38117;SDS011;23928;47.562;7.508;2024-01-10T14:01:14;44.60;;;23.03;;
38117;SDS011;23928;47.562;7.508;2024-01-10T14:03:40;46.17;;;23.70;;
38117;SDS011;23928;47.562;7.508;2024-01-10T14:06:05;46.07;;;23.90;;
38117;SDS011;23928;47.562;7.508;2024-01-10T14:08:31;50.17;;;23.57;;
38117;SDS011;23928;47.562;7.508;2024-01-10T14:10:57;46.87;;;24.87;;
38117;SDS011;23928;47.562;7.508;2024-01-10T14:13:23;47.27;;;24.43;;
38117;SDS011;23928;47.562;7.508;2024-01-10T14:15:48;48.33;;;23.93;;
38117;SDS011;23928;47.562;7.508;2024-01-10T14:18:14;50.30;;;24.53;;
38117;SDS011;23928;47.562;7.508;2024-01-10T14:20:40;46.97;;;23.43;;
38117;SDS011;23928;47.562;7.508;2024-01-10T14:23:05;44.13;;;22.53;;
38117;SDS011;23928;47.562;7.508;2024-01-10T14:25:31;45.73;;;23.47;;
38117;SDS011;23928;47.562;7.508;2024-01-10T14:27:57;42.37;;;22.33;;
38117;SDS011;23928;47.562;7.508;2024-01-10T14:30:25;45.83;;;23.03;;